sensor_id;sensor_type;location;lat;lon;timestamp;P1;durP1;ratioP1;P2;durP2;ratioP2
40288;SDS011;28991;52.028;5.526;2022-09-09T00:01:15;0.28;;;0.10;;
40288;SDS011;28991;52.028;5.526;2022-09-09T00:04:05;0.20;;;0.10;;
40288;SDS011;28991;52.028;5.526;2022-09-09T00:06:43;0.30;;;0.10;;
40288;SDS011;28991;52.028;5.526;2022-09-09T00:09:16;0.25;;;0.10;;
40288;SDS011;28991;52.028;5.526;2022-09-09T00:21:17;0.20;;;0.03;;
40288;SDS011;28991;52.028;5.526;2022-09-09T00:23:29;0.10;;;0.00;;
40288;SDS011;28991;52.028;5.526;2022-09-09T00:28:50;0.00;;;0.00;;
40288;SDS011;28991;52.028;5.526;2022-09-09T00:31:25;0.00;;;0.00;;
40288;SDS011;28991;52.028;5.526;2022-09-09T00:33:53;0.17;;;0.10;;
40288;SDS011;28991;52.028;5.526;2022-09-09T00:36:23;0.50;;;0.10;;
40288;SDS011;28991;52.028;5.526;2022-09-09T00:44:20;0.10;;;0.10;;
40288;SDS011;28991;52.028;5.526;2022-09-09T00:57:58;0.08;;;0.08;;
40288;SDS011;28991;52.028;5.526;2022-09-09T01:00:25;0.10;;;0.10;;
40288;SDS011;28991;52.028;5.526;2022-09-09T01:08:49;0.40;;;0.00;;
40288;SDS011;28991;52.028;5.526;2022-09-09T01:11:40;0.17;;;0.00;;
40288;SDS011;28991;52.028;5.526;2022-09-09T01:14:38;0.10;;;0.10;;
40288;SDS011;28991;52.028;5.526;2022-09-09T01:17:14;0.20;;;0.10;;
40288;SDS011;28991;52.028;5.526;2022-09-09T01:20:13;0.10;;;0.10;;
40288;SDS011;28991;52.028;5.526;2022-09-09T01:28:10;0.10;;;0.10;;
40288;SDS011;28991;52.028;5.526;2022-09-09T01:30:41;0.35;;;0.10;;
40288;SDS011;28991;52.028;5.526;2022-09-09T01:33:07;0.55;;;0.10;;
40288;SDS011;28991;52.028;5.526;2022-09-09T01:38:21;0.10;;;0.10;;
40288;SDS011;28991;52.028;5.526;2022-09-09T01:40:48;0.20;;;0.10;;
40288;SDS011;28991;52.028;5.526;2022-09-09T01:43:17;0.00;;;0.00;;
40288;SDS011;28991;52.028;5.526;2022-09-09T01:45:46;0.08;;;0.08;;
40288;SDS011;28991;52.028;5.526;2022-09-09T01:48:14;0.10;;;0.10;;
40288;SDS011;28991;52.028;5.526;2022-09-09T01:50:40;0.30;;;0.10;;
40288;SDS011;28991;52.028;5.526;2022-09-09T01:53:06;0.00;;;0.00;;
40288;SDS011;28991;52.028;5.526;2022-09-09T01:55:33;0.30;;;0.20;;
40288;SDS011;28991;52.028;5.526;2022-09-09T01:58:08;0.05;;;0.05;;
40288;SDS011;28991;52.028;5.526;2022-09-09T02:00:35;0.15;;;0.08;;
40288;SDS011;28991;52.028;5.526;2022-09-09T02:08:40;0.03;;;0.03;;
40288;SDS011;28991;52.028;5.526;2022-09-09T02:13:44;0.10;;;0.10;;
40288;SDS011;28991;52.028;5.526;2022-09-09T02:21:37;0.00;;;0.00;;
40288;SDS011;28991;52.028;5.526;2022-09-09T02:24:05;0.50;;;0.10;;
40288;SDS011;28991;52.028;5.526;2022-09-09T02:26:34;0.08;;;0.00;;
40288;SDS011;28991;52.028;5.526;2022-09-09T02:29:04;0.10;;;0.10;;
40288;SDS011;28991;52.028;5.526;2022-09-09T02:31:34;0.35;;;0.10;;
40288;SDS011;28991;52.028;5.526;2022-09-09T02:34:03;0.10;;;0.10;;
40288;SDS011;28991;52.028;5.526;2022-09-09T02:36:32;0.03;;;0.03;;
40288;SDS011;28991;52.028;5.526;2022-09-09T02:39:00;0.25;;;0.00;;
40288;SDS011;28991;52.028;5.526;2022-09-09T02:41:32;0.17;;;0.10;;
40288;SDS011;28991;52.028;5.526;2022-09-09T02:43:58;0.20;;;0.10;;
40288;SDS011;28991;52.028;5.526;2022-09-09T02:49:14;0.10;;;0.10;;
40288;SDS011;28991;52.028;5.526;2022-09-09T02:54:37;0.10;;;0.10;;
40288;SDS011;28991;52.028;5.526;2022-09-09T02:57:06;0.00;;;0.00;;
40288;SDS011;28991;52.028;5.526;2022-09-09T02:59:55;0.10;;;0.03;;
40288;SDS011;28991;52.028;5.526;2022-09-09T03:02:22;0.10;;;0.10;;
40288;SDS011;28991;52.028;5.526;2022-09-09T03:04:49;0.00;;;0.00;;
40288;SDS011;28991;52.028;5.526;2022-09-09T03:07:18;0.20;;;0.10;;
40288;SDS011;28991;52.028;5.526;2022-09-09T03:09:44;0.20;;;0.10;;
40288;SDS011;28991;52.028;5.526;2022-09-09T03:12:10;0.05;;;0.03;;
40288;SDS011;28991;52.028;5.526;2022-09-09T03:14:37;0.17;;;0.17;;
40288;SDS011;28991;52.028;5.526;2022-09-09T03:17:03;0.00;;;0.00;;
40288;SDS011;28991;52.028;5.526;2022-09-09T03:19:29;0.20;;;0.08;;
40288;SDS011;28991;52.028;5.526;2022-09-09T03:21:56;0.08;;;0.08;;
40288;SDS011;28991;52.028;5.526;2022-09-09T03:24:22;0.13;;;0.10;;
40288;SDS011;28991;52.028;5.526;2022-09-09T03:26:47;0.00;;;0.00;;
40288;SDS011;28991;52.028;5.526;2022-09-09T03:29:13;0.00;;;0.00;;
40288;SDS011;28991;52.028;5.526;2022-09-09T03:31:40;0.00;;;0.00;;
40288;SDS011;28991;52.028;5.526;2022-09-09T03:34:05;0.10;;;0.10;;
40288;SDS011;28991;52.028;5.526;2022-09-09T03:36:31;0.10;;;0.10;;
40288;SDS011;28991;52.028;5.526;2022-09-09T03:38:57;0.10;;;0.10;;
40288;SDS011;28991;52.028;5.526;2022-09-09T03:41:23;0.00;;;0.00;;
40288;SDS011;28991;52.028;5.526;2022-09-09T03:43:52;0.10;;;0.10;;
40288;SDS011;28991;52.028;5.526;2022-09-09T03:48:45;0.00;;;0.00;;
40288;SDS011;28991;52.028;5.526;2022-09-09T03:51:10;0.10;;;0.10;;
40288;SDS011;28991;52.028;5.526;2022-09-09T03:53:36;0.08;;;0.08;;
40288;SDS011;28991;52.028;5.526;2022-09-09T03:56:02;0.08;;;0.08;;
40288;SDS011;28991;52.028;5.526;2022-09-09T03:58:29;0.28;;;0.10;;
40288;SDS011;28991;52.028;5.526;2022-09-09T04:03:24;0.00;;;0.00;;
40288;SDS011;28991;52.028;5.526;2022-09-09T04:05:51;0.10;;;0.10;;
40288;SDS011;28991;52.028;5.526;2022-09-09T04:08:18;0.00;;;0.00;;
40288;SDS011;28991;52.028;5.526;2022-09-09T04:10:45;0.13;;;0.05;;
40288;SDS011;28991;52.028;5.526;2022-09-09T04:13:12;0.05;;;0.00;;
40288;SDS011;28991;52.028;5.526;2022-09-09T04:15:40;0.20;;;0.00;;
40288;SDS011;28991;52.028;5.526;2022-09-09T04:18:05;0.30;;;0.00;;
40288;SDS011;28991;52.028;5.526;2022-09-09T04:20:31;0.10;;;0.10;;
40288;SDS011;28991;52.028;5.526;2022-09-09T04:22:57;0.32;;;0.10;;
40288;SDS011;28991;52.028;5.526;2022-09-09T04:25:23;0.43;;;0.10;;
40288;SDS011;28991;52.028;5.526;2022-09-09T04:27:53;0.00;;;0.00;;
40288;SDS011;28991;52.028;5.526;2022-09-09T04:30:19;0.10;;;0.10;;
40288;SDS011;28991;52.028;5.526;2022-09-09T04:32:46;0.00;;;0.00;;
40288;SDS011;28991;52.028;5.526;2022-09-09T04:35:11;1.08;;;0.20;;
40288;SDS011;28991;52.028;5.526;2022-09-09T04:37:37;0.28;;;0.10;;
40288;SDS011;28991;52.028;5.526;2022-09-09T04:40:02;0.30;;;0.10;;
40288;SDS011;28991;52.028;5.526;2022-09-09T04:42:28;0.22;;;0.20;;
40288;SDS011;28991;52.028;5.526;2022-09-09T04:44:54;0.40;;;0.10;;
40288;SDS011;28991;52.028;5.526;2022-09-09T04:47:19;0.17;;;0.10;;
40288;SDS011;28991;52.028;5.526;2022-09-09T04:49:45;0.17;;;0.13;;
40288;SDS011;28991;52.028;5.526;2022-09-09T04:52:10;2.10;;;0.30;;
40288;SDS011;28991;52.028;5.526;2022-09-09T04:54:36;0.22;;;0.10;;
40288;SDS011;28991;52.028;5.526;2022-09-09T04:57:02;0.20;;;0.20;;
40288;SDS011;28991;52.028;5.526;2022-09-09T04:59:27;0.80;;;0.10;;
40288;SDS011;28991;52.028;5.526;2022-09-09T05:01:53;0.38;;;0.30;;
40288;SDS011;28991;52.028;5.526;2022-09-09T05:04:20;1.95;;;0.20;;
40288;SDS011;28991;52.028;5.526;2022-09-09T05:06:46;2.08;;;0.20;;
40288;SDS011;28991;52.028;5.526;2022-09-09T05:09:11;0.65;;;0.10;;
40288;SDS011;28991;52.028;5.526;2022-09-09T05:11:37;0.13;;;0.05;;
40288;SDS011;28991;52.028;5.526;2022-09-09T05:14:03;0.10;;;0.10;;
40288;SDS011;28991;52.028;5.526;2022-09-09T05:16:29;0.10;;;0.10;;
40288;SDS011;28991;52.028;5.526;2022-09-09T05:18:55;0.03;;;0.00;;
40288;SDS011;28991;52.028;5.526;2022-09-09T05:21:21;0.20;;;0.20;;
40288;SDS011;28991;52.028;5.526;2022-09-09T05:23:48;0.10;;;0.10;;
40288;SDS011;28991;52.028;5.526;2022-09-09T05:26:16;0.20;;;0.10;;
40288;SDS011;28991;52.028;5.526;2022-09-09T05:28:43;0.30;;;0.30;;
40288;SDS011;28991;52.028;5.526;2022-09-09T05:31:10;0.00;;;0.00;;
40288;SDS011;28991;52.028;5.526;2022-09-09T05:33:38;0.03;;;0.03;;
40288;SDS011;28991;52.028;5.526;2022-09-09T05:36:09;0.15;;;0.05;;
40288;SDS011;28991;52.028;5.526;2022-09-09T05:38:38;0.22;;;0.13;;
40288;SDS011;28991;52.028;5.526;2022-09-09T05:41:05;0.40;;;0.10;;
40288;SDS011;28991;52.028;5.526;2022-09-09T05:43:32;0.00;;;0.00;;
40288;SDS011;28991;52.028;5.526;2022-09-09T05:46:04;0.40;;;0.10;;
40288;SDS011;28991;52.028;5.526;2022-09-09T05:48:36;1.17;;;0.00;;
40288;SDS011;28991;52.028;5.526;2022-09-09T05:51:08;0.10;;;0.10;;
40288;SDS011;28991;52.028;5.526;2022-09-09T05:53:37;0.32;;;0.10;;
40288;SDS011;28991;52.028;5.526;2022-09-09T05:56:04;0.63;;;0.10;;
40288;SDS011;28991;52.028;5.526;2022-09-09T05:58:31;0.00;;;0.00;;
40288;SDS011;28991;52.028;5.526;2022-09-09T06:01:01;0.30;;;0.10;;
40288;SDS011;28991;52.028;5.526;2022-09-09T06:03:32;0.20;;;0.08;;
40288;SDS011;28991;52.028;5.526;2022-09-09T06:06:00;0.10;;;0.10;;
40288;SDS011;28991;52.028;5.526;2022-09-09T06:08:27;0.38;;;0.17;;
40288;SDS011;28991;52.028;5.526;2022-09-09T06:10:53;0.20;;;0.10;;
40288;SDS011;28991;52.028;5.526;2022-09-09T06:13:27;0.22;;;0.10;;
40288;SDS011;28991;52.028;5.526;2022-09-09T06:15:53;1.08;;;0.10;;
40288;SDS011;28991;52.028;5.526;2022-09-09T06:18:18;0.30;;;0.10;;
40288;SDS011;28991;52.028;5.526;2022-09-09T06:24:09;0.77;;;0.20;;
40288;SDS011;28991;52.028;5.526;2022-09-09T06:26:36;0.52;;;0.03;;
40288;SDS011;28991;52.028;5.526;2022-09-09T06:29:05;0.32;;;0.10;;
40288;SDS011;28991;52.028;5.526;2022-09-09T06:31:31;1.08;;;0.40;;
40288;SDS011;28991;52.028;5.526;2022-09-09T06:33:59;1.23;;;0.30;;
40288;SDS011;28991;52.028;5.526;2022-09-09T06:36:29;0.30;;;0.10;;
40288;SDS011;28991;52.028;5.526;2022-09-09T06:39:02;0.38;;;0.20;;
40288;SDS011;28991;52.028;5.526;2022-09-09T06:41:29;0.82;;;0.20;;
40288;SDS011;28991;52.028;5.526;2022-09-09T06:43:56;0.30;;;0.20;;
40288;SDS011;28991;52.028;5.526;2022-09-09T06:46:22;0.20;;;0.17;;
40288;SDS011;28991;52.028;5.526;2022-09-09T06:48:57;0.20;;;0.10;;
40288;SDS011;28991;52.028;5.526;2022-09-09T06:51:25;0.28;;;0.15;;
40288;SDS011;28991;52.028;5.526;2022-09-09T06:53:54;1.48;;;0.20;;
40288;SDS011;28991;52.028;5.526;2022-09-09T06:58:53;0.98;;;0.10;;
40288;SDS011;28991;52.028;5.526;2022-09-09T07:01:20;1.13;;;0.25;;
40288;SDS011;28991;52.028;5.526;2022-09-09T07:03:49;0.65;;;0.38;;
40288;SDS011;28991;52.028;5.526;2022-09-09T07:06:23;3.10;;;0.30;;
40288;SDS011;28991;52.028;5.526;2022-09-09T07:08:50;2.13;;;0.20;;
40288;SDS011;28991;52.028;5.526;2022-09-09T07:11:18;1.15;;;0.20;;
40288;SDS011;28991;52.028;5.526;2022-09-09T07:13:44;4.28;;;0.40;;
40288;SDS011;28991;52.028;5.526;2022-09-09T07:16:11;0.75;;;0.20;;
40288;SDS011;28991;52.028;5.526;2022-09-09T07:18:38;1.67;;;0.57;;
40288;SDS011;28991;52.028;5.526;2022-09-09T07:21:05;1.20;;;0.40;;
40288;SDS011;28991;52.028;5.526;2022-09-09T07:23:31;3.45;;;0.40;;
40288;SDS011;28991;52.028;5.526;2022-09-09T07:25:57;0.52;;;0.22;;
40288;SDS011;28991;52.028;5.526;2022-09-09T07:28:23;2.17;;;0.32;;
40288;SDS011;28991;52.028;5.526;2022-09-09T07:30:59;2.22;;;0.60;;
40288;SDS011;28991;52.028;5.526;2022-09-09T07:33:27;1.42;;;0.30;;
40288;SDS011;28991;52.028;5.526;2022-09-09T07:36:01;2.25;;;0.50;;
40288;SDS011;28991;52.028;5.526;2022-09-09T07:38:28;1.48;;;0.47;;
40288;SDS011;28991;52.028;5.526;2022-09-09T07:41:02;6.13;;;0.50;;
40288;SDS011;28991;52.028;5.526;2022-09-09T07:43:33;1.95;;;1.27;;
40288;SDS011;28991;52.028;5.526;2022-09-09T07:45:59;2.35;;;0.60;;
40288;SDS011;28991;52.028;5.526;2022-09-09T07:48:28;1.85;;;0.47;;
40288;SDS011;28991;52.028;5.526;2022-09-09T07:51:04;3.40;;;0.80;;
40288;SDS011;28991;52.028;5.526;2022-09-09T07:53:41;4.50;;;0.65;;
40288;SDS011;28991;52.028;5.526;2022-09-09T07:56:09;9.10;;;1.17;;
40288;SDS011;28991;52.028;5.526;2022-09-09T07:58:36;3.33;;;0.90;;
40288;SDS011;28991;52.028;5.526;2022-09-09T08:01:10;5.93;;;1.38;;
40288;SDS011;28991;52.028;5.526;2022-09-09T08:03:38;8.50;;;1.35;;
40288;SDS011;28991;52.028;5.526;2022-09-09T08:06:05;4.55;;;0.85;;
40288;SDS011;28991;52.028;5.526;2022-09-09T08:08:32;8.18;;;1.23;;
40288;SDS011;28991;52.028;5.526;2022-09-09T08:11:07;4.15;;;0.80;;
40288;SDS011;28991;52.028;5.526;2022-09-09T08:13:35;3.03;;;0.70;;
40288;SDS011;28991;52.028;5.526;2022-09-09T08:16:12;3.28;;;0.77;;
40288;SDS011;28991;52.028;5.526;2022-09-09T08:18:37;2.88;;;0.60;;
40288;SDS011;28991;52.028;5.526;2022-09-09T08:23:37;1.65;;;0.60;;
40288;SDS011;28991;52.028;5.526;2022-09-09T08:26:11;5.35;;;0.80;;
40288;SDS011;28991;52.028;5.526;2022-09-09T08:28:39;3.17;;;0.60;;
40288;SDS011;28991;52.028;5.526;2022-09-09T08:31:13;3.88;;;0.63;;
40288;SDS011;28991;52.028;5.526;2022-09-09T08:33:41;5.60;;;0.90;;
40288;SDS011;28991;52.028;5.526;2022-09-09T08:36:10;5.78;;;1.52;;
40288;SDS011;28991;52.028;5.526;2022-09-09T08:38:38;4.68;;;0.68;;
40288;SDS011;28991;52.028;5.526;2022-09-09T08:41:07;5.07;;;1.00;;
40288;SDS011;28991;52.028;5.526;2022-09-09T08:43:36;6.78;;;1.10;;
40288;SDS011;28991;52.028;5.526;2022-09-09T08:46:07;3.35;;;0.60;;
40288;SDS011;28991;52.028;5.526;2022-09-09T08:49:05;2.83;;;0.60;;
40288;SDS011;28991;52.028;5.526;2022-09-09T08:51:42;6.20;;;0.82;;
40288;SDS011;28991;52.028;5.526;2022-09-09T08:54:08;4.47;;;0.88;;
40288;SDS011;28991;52.028;5.526;2022-09-09T08:56:35;5.35;;;1.00;;
40288;SDS011;28991;52.028;5.526;2022-09-09T08:59:01;3.15;;;0.77;;
40288;SDS011;28991;52.028;5.526;2022-09-09T09:04:21;3.70;;;1.00;;
40288;SDS011;28991;52.028;5.526;2022-09-09T09:12:40;4.10;;;0.88;;
40288;SDS011;28991;52.028;5.526;2022-09-09T09:15:19;8.45;;;1.10;;
40288;SDS011;28991;52.028;5.526;2022-09-09T09:17:48;3.10;;;1.02;;
40288;SDS011;28991;52.028;5.526;2022-09-09T09:20:14;7.00;;;0.68;;
40288;SDS011;28991;52.028;5.526;2022-09-09T09:22:51;4.93;;;1.90;;
40288;SDS011;28991;52.028;5.526;2022-09-09T09:25:23;2.90;;;0.80;;
40288;SDS011;28991;52.028;5.526;2022-09-09T09:28:00;5.07;;;0.80;;
40288;SDS011;28991;52.028;5.526;2022-09-09T09:30:46;1.80;;;0.57;;
40288;SDS011;28991;52.028;5.526;2022-09-09T09:35:46;3.17;;;0.65;;
40288;SDS011;28991;52.028;5.526;2022-09-09T09:38:16;2.90;;;0.80;;
40288;SDS011;28991;52.028;5.526;2022-09-09T09:40:50;1.88;;;0.55;;
40288;SDS011;28991;52.028;5.526;2022-09-09T09:45:58;4.25;;;0.98;;
40288;SDS011;28991;52.028;5.526;2022-09-09T09:48:25;4.97;;;1.02;;
40288;SDS011;28991;52.028;5.526;2022-09-09T09:50:53;3.80;;;0.68;;
40288;SDS011;28991;52.028;5.526;2022-09-09T09:53:30;5.95;;;1.30;;
40288;SDS011;28991;52.028;5.526;2022-09-09T09:56:01;17.45;;;1.00;;
40288;SDS011;28991;52.028;5.526;2022-09-09T10:01:22;1.50;;;0.55;;
40288;SDS011;28991;52.028;5.526;2022-09-09T10:06:51;2.33;;;0.57;;
40288;SDS011;28991;52.028;5.526;2022-09-09T10:09:29;3.55;;;0.90;;
40288;SDS011;28991;52.028;5.526;2022-09-09T10:14:42;5.63;;;0.50;;
40288;SDS011;28991;52.028;5.526;2022-09-09T10:19:54;2.13;;;0.63;;
40288;SDS011;28991;52.028;5.526;2022-09-09T10:22:44;7.47;;;0.60;;
40288;SDS011;28991;52.028;5.526;2022-09-09T10:25:25;5.88;;;1.00;;
40288;SDS011;28991;52.028;5.526;2022-09-09T10:28:29;1.48;;;0.65;;
40288;SDS011;28991;52.028;5.526;2022-09-09T10:34:00;5.60;;;0.80;;
40288;SDS011;28991;52.028;5.526;2022-09-09T10:36:33;2.15;;;0.60;;
40288;SDS011;28991;52.028;5.526;2022-09-09T10:39:06;3.83;;;0.70;;
40288;SDS011;28991;52.028;5.526;2022-09-09T10:42:06;2.72;;;0.82;;
40288;SDS011;28991;52.028;5.526;2022-09-09T10:44:38;2.88;;;0.50;;
40288;SDS011;28991;52.028;5.526;2022-09-09T10:47:25;2.47;;;0.70;;
40288;SDS011;28991;52.028;5.526;2022-09-09T10:55:35;1.70;;;0.50;;
40288;SDS011;28991;52.028;5.526;2022-09-09T10:58:08;3.03;;;0.90;;
40288;SDS011;28991;52.028;5.526;2022-09-09T11:00:46;1.98;;;0.75;;
40288;SDS011;28991;52.028;5.526;2022-09-09T11:03:23;6.07;;;0.60;;
40288;SDS011;28991;52.028;5.526;2022-09-09T11:05:52;4.95;;;0.80;;
40288;SDS011;28991;52.028;5.526;2022-09-09T11:08:26;6.75;;;0.80;;
40288;SDS011;28991;52.028;5.526;2022-09-09T11:11:03;4.70;;;0.60;;
40288;SDS011;28991;52.028;5.526;2022-09-09T11:13:38;4.88;;;1.42;;
40288;SDS011;28991;52.028;5.526;2022-09-09T11:19:08;6.15;;;1.02;;
40288;SDS011;28991;52.028;5.526;2022-09-09T11:21:46;2.90;;;0.80;;
40288;SDS011;28991;52.028;5.526;2022-09-09T11:24:31;2.78;;;0.98;;
40288;SDS011;28991;52.028;5.526;2022-09-09T11:27:06;3.38;;;0.60;;
40288;SDS011;28991;52.028;5.526;2022-09-09T11:32:25;6.45;;;1.05;;
40288;SDS011;28991;52.028;5.526;2022-09-09T11:40:40;9.20;;;0.68;;
40288;SDS011;28991;52.028;5.526;2022-09-09T11:43:10;5.43;;;1.05;;
40288;SDS011;28991;52.028;5.526;2022-09-09T11:45:37;4.30;;;0.90;;
40288;SDS011;28991;52.028;5.526;2022-09-09T11:48:10;3.03;;;0.85;;
40288;SDS011;28991;52.028;5.526;2022-09-09T11:50:57;5.32;;;1.30;;
40288;SDS011;28991;52.028;5.526;2022-09-09T11:53:34;3.75;;;1.10;;
40288;SDS011;28991;52.028;5.526;2022-09-09T11:56:12;5.30;;;0.98;;
40288;SDS011;28991;52.028;5.526;2022-09-09T11:58:40;3.10;;;0.70;;
40288;SDS011;28991;52.028;5.526;2022-09-09T12:01:15;3.30;;;0.80;;
40288;SDS011;28991;52.028;5.526;2022-09-09T12:03:51;4.30;;;0.60;;
40288;SDS011;28991;52.028;5.526;2022-09-09T12:06:30;3.95;;;1.13;;
40288;SDS011;28991;52.028;5.526;2022-09-09T12:08:58;4.75;;;0.88;;
40288;SDS011;28991;52.028;5.526;2022-09-09T12:11:39;3.30;;;0.50;;
40288;SDS011;28991;52.028;5.526;2022-09-09T12:14:18;1.58;;;0.70;;
40288;SDS011;28991;52.028;5.526;2022-09-09T12:17:07;6.03;;;0.55;;
40288;SDS011;28991;52.028;5.526;2022-09-09T12:20:08;2.25;;;0.50;;
40288;SDS011;28991;52.028;5.526;2022-09-09T12:31:39;4.25;;;1.05;;
40288;SDS011;28991;52.028;5.526;2022-09-09T12:34:16;1.02;;;0.30;;
40288;SDS011;28991;52.028;5.526;2022-09-09T12:39:50;2.20;;;0.40;;
40288;SDS011;28991;52.028;5.526;2022-09-09T12:42:20;2.47;;;0.90;;
40288;SDS011;28991;52.028;5.526;2022-09-09T12:44:50;3.58;;;0.50;;
40288;SDS011;28991;52.028;5.526;2022-09-09T12:47:21;1.98;;;0.40;;
40288;SDS011;28991;52.028;5.526;2022-09-09T12:50:02;2.67;;;0.55;;
40288;SDS011;28991;52.028;5.526;2022-09-09T12:52:29;1.85;;;0.55;;
40288;SDS011;28991;52.028;5.526;2022-09-09T12:55:02;3.22;;;0.50;;
40288;SDS011;28991;52.028;5.526;2022-09-09T12:57:33;6.03;;;0.85;;
40288;SDS011;28991;52.028;5.526;2022-09-09T13:00:12;3.13;;;1.05;;
40288;SDS011;28991;52.028;5.526;2022-09-09T13:03:03;1.33;;;0.47;;
40288;SDS011;28991;52.028;5.526;2022-09-09T13:05:42;1.33;;;0.40;;
40288;SDS011;28991;52.028;5.526;2022-09-09T13:08:10;0.82;;;0.52;;
40288;SDS011;28991;52.028;5.526;2022-09-09T13:13:15;1.20;;;0.40;;
40288;SDS011;28991;52.028;5.526;2022-09-09T13:15:49;2.30;;;0.60;;
40288;SDS011;28991;52.028;5.526;2022-09-09T13:18:17;2.33;;;0.90;;
40288;SDS011;28991;52.028;5.526;2022-09-09T13:20:50;0.77;;;0.28;;
40288;SDS011;28991;52.028;5.526;2022-09-09T13:23:16;5.15;;;0.30;;
40288;SDS011;28991;52.028;5.526;2022-09-09T13:25:54;2.20;;;0.22;;
40288;SDS011;28991;52.028;5.526;2022-09-09T13:28:25;1.27;;;0.30;;
40288;SDS011;28991;52.028;5.526;2022-09-09T13:30:59;1.02;;;0.30;;
40288;SDS011;28991;52.028;5.526;2022-09-09T13:33:35;1.50;;;0.73;;
40288;SDS011;28991;52.028;5.526;2022-09-09T13:38:36;1.58;;;0.30;;
40288;SDS011;28991;52.028;5.526;2022-09-09T13:41:06;0.73;;;0.30;;
40288;SDS011;28991;52.028;5.526;2022-09-09T13:43:35;0.65;;;0.25;;
40288;SDS011;28991;52.028;5.526;2022-09-09T13:46:21;2.33;;;0.43;;
40288;SDS011;28991;52.028;5.526;2022-09-09T13:48:58;1.33;;;0.60;;
40288;SDS011;28991;52.028;5.526;2022-09-09T13:54:10;5.63;;;1.17;;
40288;SDS011;28991;52.028;5.526;2022-09-09T13:56:37;3.30;;;1.17;;
40288;SDS011;28991;52.028;5.526;2022-09-09T13:59:05;1.67;;;0.90;;
40288;SDS011;28991;52.028;5.526;2022-09-09T14:01:34;2.60;;;1.38;;
40288;SDS011;28991;52.028;5.526;2022-09-09T14:04:00;2.28;;;1.33;;
40288;SDS011;28991;52.028;5.526;2022-09-09T14:06:26;6.38;;;1.40;;
40288;SDS011;28991;52.028;5.526;2022-09-09T14:08:52;4.78;;;2.05;;
40288;SDS011;28991;52.028;5.526;2022-09-09T14:11:19;3.78;;;1.23;;
40288;SDS011;28991;52.028;5.526;2022-09-09T14:13:46;1.20;;;0.77;;
40288;SDS011;28991;52.028;5.526;2022-09-09T14:16:12;0.75;;;0.70;;
40288;SDS011;28991;52.028;5.526;2022-09-09T14:18:38;1.08;;;0.60;;
40288;SDS011;28991;52.028;5.526;2022-09-09T14:21:04;1.73;;;0.80;;
40288;SDS011;28991;52.028;5.526;2022-09-09T14:23:29;1.70;;;0.50;;
40288;SDS011;28991;52.028;5.526;2022-09-09T14:25:56;1.30;;;0.50;;
40288;SDS011;28991;52.028;5.526;2022-09-09T14:28:22;1.33;;;0.50;;
40288;SDS011;28991;52.028;5.526;2022-09-09T14:30:47;0.70;;;0.30;;
40288;SDS011;28991;52.028;5.526;2022-09-09T14:33:14;0.43;;;0.20;;
40288;SDS011;28991;52.028;5.526;2022-09-09T14:35:40;0.68;;;0.40;;
40288;SDS011;28991;52.028;5.526;2022-09-09T14:38:07;1.02;;;0.30;;
40288;SDS011;28991;52.028;5.526;2022-09-09T14:40:34;0.40;;;0.28;;
40288;SDS011;28991;52.028;5.526;2022-09-09T14:43:00;1.02;;;0.30;;
40288;SDS011;28991;52.028;5.526;2022-09-09T14:45:27;0.85;;;0.20;;
40288;SDS011;28991;52.028;5.526;2022-09-09T14:47:53;0.20;;;0.20;;
40288;SDS011;28991;52.028;5.526;2022-09-09T14:50:19;0.20;;;0.20;;
40288;SDS011;28991;52.028;5.526;2022-09-09T14:52:46;0.20;;;0.20;;
40288;SDS011;28991;52.028;5.526;2022-09-09T14:55:12;0.30;;;0.20;;
40288;SDS011;28991;52.028;5.526;2022-09-09T14:57:38;0.10;;;0.10;;
40288;SDS011;28991;52.028;5.526;2022-09-09T15:00:05;0.80;;;0.20;;
40288;SDS011;28991;52.028;5.526;2022-09-09T15:02:33;0.35;;;0.20;;
40288;SDS011;28991;52.028;5.526;2022-09-09T15:04:59;0.40;;;0.10;;
40288;SDS011;28991;52.028;5.526;2022-09-09T15:07:24;0.13;;;0.13;;
40288;SDS011;28991;52.028;5.526;2022-09-09T15:09:52;0.10;;;0.10;;
40288;SDS011;28991;52.028;5.526;2022-09-09T15:12:18;0.10;;;0.10;;
40288;SDS011;28991;52.028;5.526;2022-09-09T15:14:44;0.32;;;0.10;;
40288;SDS011;28991;52.028;5.526;2022-09-09T15:17:10;0.17;;;0.10;;
40288;SDS011;28991;52.028;5.526;2022-09-09T15:19:36;0.17;;;0.10;;
40288;SDS011;28991;52.028;5.526;2022-09-09T15:22:02;0.10;;;0.10;;
40288;SDS011;28991;52.028;5.526;2022-09-09T15:24:30;0.20;;;0.15;;
40288;SDS011;28991;52.028;5.526;2022-09-09T15:26:56;0.45;;;0.10;;
40288;SDS011;28991;52.028;5.526;2022-09-09T15:29:22;0.20;;;0.10;;
40288;SDS011;28991;52.028;5.526;2022-09-09T15:31:48;0.10;;;0.10;;
40288;SDS011;28991;52.028;5.526;2022-09-09T15:34:13;0.30;;;0.10;;
40288;SDS011;28991;52.028;5.526;2022-09-09T15:36:40;0.28;;;0.10;;
40288;SDS011;28991;52.028;5.526;2022-09-09T15:39:08;0.20;;;0.10;;
40288;SDS011;28991;52.028;5.526;2022-09-09T15:41:37;0.28;;;0.20;;
40288;SDS011;28991;52.028;5.526;2022-09-09T15:44:04;0.13;;;0.10;;
40288;SDS011;28991;52.028;5.526;2022-09-09T15:46:31;0.13;;;0.10;;
40288;SDS011;28991;52.028;5.526;2022-09-09T15:49:05;0.10;;;0.10;;
40288;SDS011;28991;52.028;5.526;2022-09-09T15:51:30;0.20;;;0.10;;
40288;SDS011;28991;52.028;5.526;2022-09-09T15:53:57;0.10;;;0.10;;
40288;SDS011;28991;52.028;5.526;2022-09-09T15:56:25;0.28;;;0.10;;
40288;SDS011;28991;52.028;5.526;2022-09-09T15:58:52;0.05;;;0.00;;
40288;SDS011;28991;52.028;5.526;2022-09-09T16:01:19;0.10;;;0.10;;
40288;SDS011;28991;52.028;5.526;2022-09-09T16:03:45;0.00;;;0.00;;
40288;SDS011;28991;52.028;5.526;2022-09-09T16:06:13;0.20;;;0.10;;
40288;SDS011;28991;52.028;5.526;2022-09-09T16:08:40;0.20;;;0.00;;
40288;SDS011;28991;52.028;5.526;2022-09-09T16:11:12;0.10;;;0.10;;
40288;SDS011;28991;52.028;5.526;2022-09-09T16:13:40;0.00;;;0.00;;
40288;SDS011;28991;52.028;5.526;2022-09-09T16:16:08;0.13;;;0.13;;
40288;SDS011;28991;52.028;5.526;2022-09-09T16:18:36;0.05;;;0.05;;
40288;SDS011;28991;52.028;5.526;2022-09-09T16:21:13;0.08;;;0.08;;
40288;SDS011;28991;52.028;5.526;2022-09-09T16:23:44;0.08;;;0.00;;
40288;SDS011;28991;52.028;5.526;2022-09-09T16:26:11;0.32;;;0.10;;
40288;SDS011;28991;52.028;5.526;2022-09-09T16:28:38;0.00;;;0.00;;
40288;SDS011;28991;52.028;5.526;2022-09-09T16:31:08;0.25;;;0.10;;
40288;SDS011;28991;52.028;5.526;2022-09-09T16:33:35;0.20;;;0.10;;
40288;SDS011;28991;52.028;5.526;2022-09-09T16:36:05;0.05;;;0.05;;
40288;SDS011;28991;52.028;5.526;2022-09-09T16:38:31;0.10;;;0.10;;
40288;SDS011;28991;52.028;5.526;2022-09-09T16:40:58;0.10;;;0.03;;
40288;SDS011;28991;52.028;5.526;2022-09-09T16:43:24;0.10;;;0.00;;
40288;SDS011;28991;52.028;5.526;2022-09-09T16:45:50;0.05;;;0.00;;
40288;SDS011;28991;52.028;5.526;2022-09-09T16:48:15;0.00;;;0.00;;
40288;SDS011;28991;52.028;5.526;2022-09-09T16:50:41;0.00;;;0.00;;
40288;SDS011;28991;52.028;5.526;2022-09-09T16:53:06;0.00;;;0.00;;
40288;SDS011;28991;52.028;5.526;2022-09-09T16:55:37;0.00;;;0.00;;
40288;SDS011;28991;52.028;5.526;2022-09-09T16:58:10;0.25;;;0.10;;
40288;SDS011;28991;52.028;5.526;2022-09-09T17:00:36;0.08;;;0.00;;
40288;SDS011;28991;52.028;5.526;2022-09-09T17:03:02;0.10;;;0.10;;
40288;SDS011;28991;52.028;5.526;2022-09-09T17:05:28;0.00;;;0.00;;
40288;SDS011;28991;52.028;5.526;2022-09-09T17:07:54;0.00;;;0.00;;
40288;SDS011;28991;52.028;5.526;2022-09-09T17:10:23;0.00;;;0.00;;
40288;SDS011;28991;52.028;5.526;2022-09-09T17:12:50;0.00;;;0.00;;
40288;SDS011;28991;52.028;5.526;2022-09-09T17:15:16;0.00;;;0.00;;
40288;SDS011;28991;52.028;5.526;2022-09-09T17:17:43;0.05;;;0.05;;
40288;SDS011;28991;52.028;5.526;2022-09-09T17:20:10;0.00;;;0.00;;
40288;SDS011;28991;52.028;5.526;2022-09-09T17:22:35;0.00;;;0.00;;
40288;SDS011;28991;52.028;5.526;2022-09-09T17:25:01;0.47;;;0.10;;